Meteorología – Condiciones actuales

Viento: 9kts / 090° Pista Recomendada: 06
Componente de viento cruzado: 4.3kts
Temperatura: 25°C / Punto de Rocío: 18°C
QNH LELC: 1010 / Presión atmosf. LELG: 1019.98mbar
Condición CTR LELC: VFR
Altitud de Densidad: 1322'AMSL / Isocero: 12210'AMSL
Orto: 06:46LT / Ocaso: 21:26LT
METAR LELC: LELC 261130Z 08006KT 030V110 CAVOK 25/19 Q1010 NOSIG
Fuente: NOAA
Datos completos de la estación meteorológica en Weather Underground
UTC time: